sensor_id;sensor_type;location;lat;lon;timestamp;temperature;humidity
68248;SHT30;55064;49.636;12.164;2023-04-24T00:02:02;10.37;96.89
68248;SHT30;55064;49.636;12.164;2023-04-24T00:04:29;10.30;97.11
68248;SHT30;55064;49.636;12.164;2023-04-24T00:06:55;10.34;96.91
68248;SHT30;55064;49.636;12.164;2023-04-24T00:09:22;10.25;97.26
68248;SHT30;55064;49.636;12.164;2023-04-24T00:11:48;10.22;97.87
68248;SHT30;55064;49.636;12.164;2023-04-24T00:14:13;10.25;97.68
68248;SHT30;55064;49.636;12.164;2023-04-24T00:16:38;10.27;97.46
68248;SHT30;55064;49.636;12.164;2023-04-24T00:19:06;10.22;97.45
68248;SHT30;55064;49.636;12.164;2023-04-24T00:21:34;10.22;97.39
68248;SHT30;55064;49.636;12.164;2023-04-24T00:24:00;10.24;97.38
68248;SHT30;55064;49.636;12.164;2023-04-24T00:26:26;10.25;97.35
68248;SHT30;55064;49.636;12.164;2023-04-24T00:28:52;10.21;97.27
68248;SHT30;55064;49.636;12.164;2023-04-24T00:31:18;10.22;97.07
68248;SHT30;55064;49.636;12.164;2023-04-24T00:33:46;10.27;96.92
68248;SHT30;55064;49.636;12.164;2023-04-24T00:36:14;10.30;97.03
68248;SHT30;55064;49.636;12.164;2023-04-24T00:38:39;10.27;96.66
68248;SHT30;55064;49.636;12.164;2023-04-24T00:41:05;10.25;96.75
68248;SHT30;55064;49.636;12.164;2023-04-24T00:43:31;10.24;96.64
68248;SHT30;55064;49.636;12.164;2023-04-24T00:46:04;10.18;96.80
68248;SHT30;55064;49.636;12.164;2023-04-24T00:48:30;10.17;96.92
68248;SHT30;55064;49.636;12.164;2023-04-24T00:50:56;10.13;97.17
68248;SHT30;55064;49.636;12.164;2023-04-24T00:53:28;10.10;97.20
68248;SHT30;55064;49.636;12.164;2023-04-24T00:55:53;10.11;97.03
68248;SHT30;55064;49.636;12.164;2023-04-24T00:58:19;10.07;97.35
68248;SHT30;55064;49.636;12.164;2023-04-24T01:00:45;10.01;97.60
68248;SHT30;55064;49.636;12.164;2023-04-24T01:03:11;10.00;97.65
68248;SHT30;55064;49.636;12.164;2023-04-24T01:05:38;10.04;97.56
68248;SHT30;55064;49.636;12.164;2023-04-24T01:08:04;10.04;97.62
68248;SHT30;55064;49.636;12.164;2023-04-24T01:10:31;10.07;97.54
68248;SHT30;55064;49.636;12.164;2023-04-24T01:12:58;10.07;97.40
68248;SHT30;55064;49.636;12.164;2023-04-24T01:15:23;10.10;96.86
68248;SHT30;55064;49.636;12.164;2023-04-24T01:17:51;10.08;97.25
68248;SHT30;55064;49.636;12.164;2023-04-24T01:20:21;10.08;97.17
68248;SHT30;55064;49.636;12.164;2023-04-24T01:22:51;10.15;96.65
68248;SHT30;55064;49.636;12.164;2023-04-24T01:25:20;10.18;96.59
68248;SHT30;55064;49.636;12.164;2023-04-24T01:27:46;10.20;96.74
68248;SHT30;55064;49.636;12.164;2023-04-24T01:30:14;10.24;96.49
68248;SHT30;55064;49.636;12.164;2023-04-24T01:32:40;10.31;96.16
68248;SHT30;55064;49.636;12.164;2023-04-24T01:35:06;10.28;96.23
68248;SHT30;55064;49.636;12.164;2023-04-24T01:37:32;10.21;96.13
68248;SHT30;55064;49.636;12.164;2023-04-24T01:39:58;10.20;96.86
68248;SHT30;55064;49.636;12.164;2023-04-24T01:42:23;10.22;96.03
68248;SHT30;55064;49.636;12.164;2023-04-24T01:44:54;10.20;96.88
68248;SHT30;55064;49.636;12.164;2023-04-24T01:47:20;10.20;96.90
68248;SHT30;55064;49.636;12.164;2023-04-24T01:49:45;10.21;95.89
68248;SHT30;55064;49.636;12.164;2023-04-24T01:52:13;10.24;96.01
68248;SHT30;55064;49.636;12.164;2023-04-24T01:54:45;10.30;96.32
68248;SHT30;55064;49.636;12.164;2023-04-24T01:57:13;10.25;96.37
68248;SHT30;55064;49.636;12.164;2023-04-24T01:59:39;10.25;96.69
68248;SHT30;55064;49.636;12.164;2023-04-24T02:02:07;10.21;96.51
68248;SHT30;55064;49.636;12.164;2023-04-24T02:04:35;10.18;96.66
68248;SHT30;55064;49.636;12.164;2023-04-24T02:07:04;10.20;96.69
68248;SHT30;55064;49.636;12.164;2023-04-24T02:09:31;10.18;96.74
68248;SHT30;55064;49.636;12.164;2023-04-24T02:11:56;10.14;96.59
68248;SHT30;55064;49.636;12.164;2023-04-24T02:14:24;10.10;96.72
68248;SHT30;55064;49.636;12.164;2023-04-24T02:16:50;9.96;97.06
68248;SHT30;55064;49.636;12.164;2023-04-24T02:19:16;9.91;96.98
68248;SHT30;55064;49.636;12.164;2023-04-24T02:21:41;9.86;97.29
68248;SHT30;55064;49.636;12.164;2023-04-24T02:24:06;9.83;97.07
68248;SHT30;55064;49.636;12.164;2023-04-24T02:26:32;9.83;96.90
68248;SHT30;55064;49.636;12.164;2023-04-24T02:28:57;9.87;96.54
68248;SHT30;55064;49.636;12.164;2023-04-24T02:31:25;9.83;96.79
68248;SHT30;55064;49.636;12.164;2023-04-24T02:33:50;9.79;96.90
68248;SHT30;55064;49.636;12.164;2023-04-24T02:36:16;9.80;96.76
68248;SHT30;55064;49.636;12.164;2023-04-24T02:38:41;9.79;97.12
68248;SHT30;55064;49.636;12.164;2023-04-24T02:41:06;9.72;97.67
68248;SHT30;55064;49.636;12.164;2023-04-24T02:43:32;9.69;97.76
68248;SHT30;55064;49.636;12.164;2023-04-24T02:45:58;9.73;97.29
68248;SHT30;55064;49.636;12.164;2023-04-24T02:48:24;9.69;97.26
68248;SHT30;55064;49.636;12.164;2023-04-24T02:50:49;9.66;97.40
68248;SHT30;55064;49.636;12.164;2023-04-24T02:53:15;9.70;97.14
68248;SHT30;55064;49.636;12.164;2023-04-24T02:55:41;9.68;97.27
68248;SHT30;55064;49.636;12.164;2023-04-24T02:58:06;9.68;97.44
68248;SHT30;55064;49.636;12.164;2023-04-24T03:00:32;9.68;97.17
68248;SHT30;55064;49.636;12.164;2023-04-24T03:02:57;9.66;97.09
68248;SHT30;55064;49.636;12.164;2023-04-24T03:05:24;9.63;97.32
68248;SHT30;55064;49.636;12.164;2023-04-24T03:07:49;9.62;97.26
68248;SHT30;55064;49.636;12.164;2023-04-24T03:10:15;9.62;97.14
68248;SHT30;55064;49.636;12.164;2023-04-24T03:12:40;9.56;97.14
68248;SHT30;55064;49.636;12.164;2023-04-24T03:15:06;9.53;97.76
68248;SHT30;55064;49.636;12.164;2023-04-24T03:17:33;9.48;98.34
68248;SHT30;55064;49.636;12.164;2023-04-24T03:19:59;9.48;98.01
68248;SHT30;55064;49.636;12.164;2023-04-24T03:22:24;9.48;98.51
68248;SHT30;55064;49.636;12.164;2023-04-24T03:24:53;9.46;98.59
68248;SHT30;55064;49.636;12.164;2023-04-24T03:27:19;9.42;98.51
68248;SHT30;55064;49.636;12.164;2023-04-24T03:29:49;9.41;98.48
68248;SHT30;55064;49.636;12.164;2023-04-24T03:32:21;9.35;98.68
68248;SHT30;55064;49.636;12.164;2023-04-24T03:34:48;9.32;98.58
68248;SHT30;55064;49.636;12.164;2023-04-24T03:37:14;9.34;98.58
68248;SHT30;55064;49.636;12.164;2023-04-24T03:39:42;9.28;98.89
68248;SHT30;55064;49.636;12.164;2023-04-24T03:42:10;9.22;98.88
68248;SHT30;55064;49.636;12.164;2023-04-24T03:44:36;9.27;98.82
68248;SHT30;55064;49.636;12.164;2023-04-24T03:47:01;9.30;98.38
68248;SHT30;55064;49.636;12.164;2023-04-24T03:49:29;9.32;98.41
68248;SHT30;55064;49.636;12.164;2023-04-24T03:51:54;9.25;98.78
68248;SHT30;55064;49.636;12.164;2023-04-24T03:54:20;9.28;98.73
68248;SHT30;55064;49.636;12.164;2023-04-24T04:03:16;9.30;98.34
68248;SHT30;55064;49.636;12.164;2023-04-24T04:09:05;9.27;98.55
68248;SHT30;55064;49.636;12.164;2023-04-24T04:14:53;9.34;98.36
68248;SHT30;55064;49.636;12.164;2023-04-24T04:20:41;9.27;98.53
68248;SHT30;55064;49.636;12.164;2023-04-24T04:30:01;9.27;97.93
68248;SHT30;55064;49.636;12.164;2023-04-24T04:32:31;9.31;98.09
68248;SHT30;55064;49.636;12.164;2023-04-24T04:38:19;9.31;97.78
68248;SHT30;55064;49.636;12.164;2023-04-24T04:44:18;9.36;97.34
68248;SHT30;55064;49.636;12.164;2023-04-24T04:53:34;9.34;97.47
68248;SHT30;55064;49.636;12.164;2023-04-24T04:59:15;9.35;97.29
68248;SHT30;55064;49.636;12.164;2023-04-24T05:05:34;9.39;97.09
68248;SHT30;55064;49.636;12.164;2023-04-24T05:11:49;9.36;97.04
68248;SHT30;55064;49.636;12.164;2023-04-24T05:17:51;9.36;97.11
68248;SHT30;55064;49.636;12.164;2023-04-24T05:20:24;9.36;97.31
68248;SHT30;55064;49.636;12.164;2023-04-24T05:23:08;9.38;97.19
68248;SHT30;55064;49.636;12.164;2023-04-24T05:25:33;9.41;97.30
68248;SHT30;55064;49.636;12.164;2023-04-24T05:28:00;9.41;96.94
68248;SHT30;55064;49.636;12.164;2023-04-24T05:30:27;9.45;96.86
68248;SHT30;55064;49.636;12.164;2023-04-24T05:32:52;9.45;97.02
68248;SHT30;55064;49.636;12.164;2023-04-24T05:35:20;9.50;97.42
68248;SHT30;55064;49.636;12.164;2023-04-24T05:37:45;9.52;97.12
68248;SHT30;55064;49.636;12.164;2023-04-24T05:40:10;9.53;97.04
68248;SHT30;55064;49.636;12.164;2023-04-24T05:42:36;9.56;96.81
68248;SHT30;55064;49.636;12.164;2023-04-24T05:45:02;9.58;97.16
68248;SHT30;55064;49.636;12.164;2023-04-24T05:47:31;9.62;97.14
68248;SHT30;55064;49.636;12.164;2023-04-24T05:49:57;9.63;96.99
68248;SHT30;55064;49.636;12.164;2023-04-24T05:52:22;9.60;96.90
68248;SHT30;55064;49.636;12.164;2023-04-24T05:54:50;9.68;97.36
68248;SHT30;55064;49.636;12.164;2023-04-24T05:57:17;9.69;96.90
68248;SHT30;55064;49.636;12.164;2023-04-24T05:59:42;9.70;96.59
68248;SHT30;55064;49.636;12.164;2023-04-24T06:02:10;9.76;96.45
68248;SHT30;55064;49.636;12.164;2023-04-24T06:04:36;9.79;96.56
68248;SHT30;55064;49.636;12.164;2023-04-24T06:07:08;9.73;96.56
68248;SHT30;55064;49.636;12.164;2023-04-24T06:09:34;9.77;96.55
68248;SHT30;55064;49.636;12.164;2023-04-24T06:12:02;9.83;96.78
68248;SHT30;55064;49.636;12.164;2023-04-24T06:14:28;9.89;96.53
68248;SHT30;55064;49.636;12.164;2023-04-24T06:16:54;9.89;96.43
68248;SHT30;55064;49.636;12.164;2023-04-24T06:19:20;9.85;96.57
68248;SHT30;55064;49.636;12.164;2023-04-24T06:21:46;9.94;96.36
68248;SHT30;55064;49.636;12.164;2023-04-24T06:24:14;10.00;96.23
68248;SHT30;55064;49.636;12.164;2023-04-24T06:26:40;10.01;95.92
68248;SHT30;55064;49.636;12.164;2023-04-24T06:29:06;10.06;96.37
68248;SHT30;55064;49.636;12.164;2023-04-24T06:31:34;10.08;96.08
68248;SHT30;55064;49.636;12.164;2023-04-24T06:34:03;10.10;96.74
68248;SHT30;55064;49.636;12.164;2023-04-24T06:36:29;10.14;96.30
68248;SHT30;55064;49.636;12.164;2023-04-24T06:38:55;10.18;96.44
68248;SHT30;55064;49.636;12.164;2023-04-24T06:41:22;10.18;95.72
68248;SHT30;55064;49.636;12.164;2023-04-24T06:43:48;10.32;95.71
68248;SHT30;55064;49.636;12.164;2023-04-24T06:46:15;10.40;95.89
68248;SHT30;55064;49.636;12.164;2023-04-24T06:48:41;10.45;95.96
68248;SHT30;55064;49.636;12.164;2023-04-24T06:51:07;10.42;95.59
68248;SHT30;55064;49.636;12.164;2023-04-24T06:53:33;10.56;95.40
68248;SHT30;55064;49.636;12.164;2023-04-24T06:55:58;10.58;94.95
68248;SHT30;55064;49.636;12.164;2023-04-24T06:58:27;10.56;94.59
68248;SHT30;55064;49.636;12.164;2023-04-24T07:00:52;10.59;94.08
68248;SHT30;55064;49.636;12.164;2023-04-24T07:03:18;10.63;94.09
68248;SHT30;55064;49.636;12.164;2023-04-24T07:05:43;10.70;94.61
68248;SHT30;55064;49.636;12.164;2023-04-24T07:08:11;10.75;94.36
68248;SHT30;55064;49.636;12.164;2023-04-24T07:10:39;10.76;94.02
68248;SHT30;55064;49.636;12.164;2023-04-24T07:13:04;10.81;94.31
68248;SHT30;55064;49.636;12.164;2023-04-24T07:15:30;10.86;93.38
68248;SHT30;55064;49.636;12.164;2023-04-24T07:17:57;10.89;93.24
68248;SHT30;55064;49.636;12.164;2023-04-24T07:20:22;10.90;92.41
68248;SHT30;55064;49.636;12.164;2023-04-24T07:22:48;10.96;93.20
68248;SHT30;55064;49.636;12.164;2023-04-24T07:25:14;10.96;92.71
68248;SHT30;55064;49.636;12.164;2023-04-24T07:27:39;11.03;92.95
68248;SHT30;55064;49.636;12.164;2023-04-24T07:30:08;11.14;92.03
68248;SHT30;55064;49.636;12.164;2023-04-24T07:32:35;11.18;91.55
68248;SHT30;55064;49.636;12.164;2023-04-24T07:35:01;11.27;90.86
68248;SHT30;55064;49.636;12.164;2023-04-24T07:37:29;11.34;91.27
68248;SHT30;55064;49.636;12.164;2023-04-24T07:39:55;11.41;89.95
68248;SHT30;55064;49.636;12.164;2023-04-24T07:42:20;11.52;89.55
68248;SHT30;55064;49.636;12.164;2023-04-24T07:44:47;11.58;90.17
68248;SHT30;55064;49.636;12.164;2023-04-24T07:47:13;11.75;89.81
68248;SHT30;55064;49.636;12.164;2023-04-24T07:49:41;11.94;89.40
68248;SHT30;55064;49.636;12.164;2023-04-24T07:52:09;11.72;88.86
68248;SHT30;55064;49.636;12.164;2023-04-24T07:54:36;11.78;89.35
68248;SHT30;55064;49.636;12.164;2023-04-24T07:57:02;11.71;88.76
68248;SHT30;55064;49.636;12.164;2023-04-24T07:59:28;11.75;89.65
68248;SHT30;55064;49.636;12.164;2023-04-24T08:01:55;11.57;89.77
68248;SHT30;55064;49.636;12.164;2023-04-24T08:04:21;11.50;90.91
68248;SHT30;55064;49.636;12.164;2023-04-24T08:06:49;11.32;91.39
68248;SHT30;55064;49.636;12.164;2023-04-24T08:09:17;11.14;91.50
68248;SHT30;55064;49.636;12.164;2023-04-24T08:11:44;10.97;92.43
68248;SHT30;55064;49.636;12.164;2023-04-24T08:14:10;10.79;91.98
68248;SHT30;55064;49.636;12.164;2023-04-24T08:16:38;10.63;92.83
68248;SHT30;55064;49.636;12.164;2023-04-24T08:19:06;10.53;92.95
68248;SHT30;55064;49.636;12.164;2023-04-24T08:21:31;10.52;92.73
68248;SHT30;55064;49.636;12.164;2023-04-24T08:24:09;10.53;92.90
68248;SHT30;55064;49.636;12.164;2023-04-24T08:29:57;10.65;89.51
68248;SHT30;55064;49.636;12.164;2023-04-24T08:35:45;10.90;87.40
68248;SHT30;55064;49.636;12.164;2023-04-24T08:38:11;10.99;85.41
68248;SHT30;55064;49.636;12.164;2023-04-24T08:40:36;11.04;85.18
68248;SHT30;55064;49.636;12.164;2023-04-24T08:43:03;11.10;82.48
68248;SHT30;55064;49.636;12.164;2023-04-24T08:45:31;11.23;83.49
68248;SHT30;55064;49.636;12.164;2023-04-24T08:47:58;11.35;82.75
68248;SHT30;55064;49.636;12.164;2023-04-24T08:50:24;11.28;81.84
68248;SHT30;55064;49.636;12.164;2023-04-24T08:52:51;11.34;83.12
68248;SHT30;55064;49.636;12.164;2023-04-24T08:55:19;11.46;83.70
68248;SHT30;55064;49.636;12.164;2023-04-24T08:57:51;11.59;82.34
68248;SHT30;55064;49.636;12.164;2023-04-24T09:00:20;11.52;80.73
68248;SHT30;55064;49.636;12.164;2023-04-24T09:02:49;11.73;80.42
68248;SHT30;55064;49.636;12.164;2023-04-24T09:05:17;11.83;79.79
68248;SHT30;55064;49.636;12.164;2023-04-24T09:07:45;11.96;80.88
68248;SHT30;55064;49.636;12.164;2023-04-24T09:10:14;12.24;79.48
68248;SHT30;55064;49.636;12.164;2023-04-24T09:12:43;12.44;78.53
68248;SHT30;55064;49.636;12.164;2023-04-24T09:15:09;12.61;77.38
68248;SHT30;55064;49.636;12.164;2023-04-24T09:17:35;12.88;78.07
68248;SHT30;55064;49.636;12.164;2023-04-24T09:20:01;13.04;78.42
68248;SHT30;55064;49.636;12.164;2023-04-24T09:22:33;13.14;77.40
68248;SHT30;55064;49.636;12.164;2023-04-24T09:25:03;13.11;74.63
68248;SHT30;55064;49.636;12.164;2023-04-24T09:27:31;13.41;74.72
68248;SHT30;55064;49.636;12.164;2023-04-24T09:29:57;13.51;73.28
68248;SHT30;55064;49.636;12.164;2023-04-24T09:32:23;13.30;71.44
68248;SHT30;55064;49.636;12.164;2023-04-24T09:37:40;13.24;70.43
68248;SHT30;55064;49.636;12.164;2023-04-24T09:40:18;13.21;68.76
68248;SHT30;55064;49.636;12.164;2023-04-24T09:42:54;13.24;69.73
68248;SHT30;55064;49.636;12.164;2023-04-24T09:45:20;13.16;68.96
68248;SHT30;55064;49.636;12.164;2023-04-24T09:47:53;13.14;67.61
68248;SHT30;55064;49.636;12.164;2023-04-24T09:50:21;13.00;68.69
68248;SHT30;55064;49.636;12.164;2023-04-24T09:52:59;13.04;69.44
68248;SHT30;55064;49.636;12.164;2023-04-24T09:55:28;13.06;69.40
68248;SHT30;55064;49.636;12.164;2023-04-24T09:58:01;13.30;69.93
68248;SHT30;55064;49.636;12.164;2023-04-24T10:00:31;13.19;69.12
68248;SHT30;55064;49.636;12.164;2023-04-24T10:03:02;12.93;68.32
68248;SHT30;55064;49.636;12.164;2023-04-24T10:05:30;12.79;69.12
68248;SHT30;55064;49.636;12.164;2023-04-24T10:07:57;12.95;69.17
68248;SHT30;55064;49.636;12.164;2023-04-24T10:10:23;13.10;68.80
68248;SHT30;55064;49.636;12.164;2023-04-24T10:12:48;12.82;68.28
68248;SHT30;55064;49.636;12.164;2023-04-24T10:15:16;12.72;68.91
68248;SHT30;55064;49.636;12.164;2023-04-24T10:17:48;12.73;69.13
68248;SHT30;55064;49.636;12.164;2023-04-24T10:20:24;12.69;69.11
68248;SHT30;55064;49.636;12.164;2023-04-24T10:22:53;12.52;68.14
68248;SHT30;55064;49.636;12.164;2023-04-24T10:25:24;12.49;68.43
68248;SHT30;55064;49.636;12.164;2023-04-24T10:27:52;12.41;67.55
68248;SHT30;55064;49.636;12.164;2023-04-24T10:30:23;12.40;67.16
68248;SHT30;55064;49.636;12.164;2023-04-24T10:32:48;12.35;66.24
68248;SHT30;55064;49.636;12.164;2023-04-24T10:35:15;12.48;67.18
68248;SHT30;55064;49.636;12.164;2023-04-24T10:37:48;12.62;67.02
68248;SHT30;55064;49.636;12.164;2023-04-24T10:40:25;12.59;64.78
68248;SHT30;55064;49.636;12.164;2023-04-24T10:42:52;12.65;65.48
68248;SHT30;55064;49.636;12.164;2023-04-24T10:45:21;12.66;65.55
68248;SHT30;55064;49.636;12.164;2023-04-24T10:48:07;13.21;65.95
68248;SHT30;55064;49.636;12.164;2023-04-24T10:53:20;13.50;62.87
68248;SHT30;55064;49.636;12.164;2023-04-24T10:58:12;13.81;63.52
68248;SHT30;55064;49.636;12.164;2023-04-24T11:00:38;13.69;62.86
68248;SHT30;55064;49.636;12.164;2023-04-24T11:03:06;13.48;62.65
68248;SHT30;55064;49.636;12.164;2023-04-24T11:08:29;13.65;63.75
68248;SHT30;55064;49.636;12.164;2023-04-24T11:11:08;14.13;61.95
68248;SHT30;55064;49.636;12.164;2023-04-24T11:21:56;14.67;60.04
68248;SHT30;55064;49.636;12.164;2023-04-24T11:27:21;14.31;59.33
68248;SHT30;55064;49.636;12.164;2023-04-24T11:29:59;14.72;60.47
68248;SHT30;55064;49.636;12.164;2023-04-24T11:35:05;14.78;58.84
68248;SHT30;55064;49.636;12.164;2023-04-24T11:37:40;14.52;59.36
68248;SHT30;55064;49.636;12.164;2023-04-24T11:40:08;14.23;59.51
68248;SHT30;55064;49.636;12.164;2023-04-24T11:42:38;13.96;59.44
68248;SHT30;55064;49.636;12.164;2023-04-24T11:45:15;13.76;61.41
68248;SHT30;55064;49.636;12.164;2023-04-24T11:47:41;13.48;61.33
68248;SHT30;55064;49.636;12.164;2023-04-24T11:50:09;13.37;61.35
68248;SHT30;55064;49.636;12.164;2023-04-24T11:52:40;13.54;61.66
68248;SHT30;55064;49.636;12.164;2023-04-24T11:55:27;13.68;62.32
68248;SHT30;55064;49.636;12.164;2023-04-24T11:57:58;13.89;59.87
68248;SHT30;55064;49.636;12.164;2023-04-24T12:00:27;13.96;58.99
68248;SHT30;55064;49.636;12.164;2023-04-24T12:03:13;13.71;60.11
68248;SHT30;55064;49.636;12.164;2023-04-24T12:05:39;13.71;60.93
68248;SHT30;55064;49.636;12.164;2023-04-24T12:08:11;13.59;61.59
68248;SHT30;55064;49.636;12.164;2023-04-24T12:10:37;13.44;61.95
68248;SHT30;55064;49.636;12.164;2023-04-24T12:13:02;13.33;63.43
68248;SHT30;55064;49.636;12.164;2023-04-24T12:15:28;13.71;64.19
68248;SHT30;55064;49.636;12.164;2023-04-24T12:17:55;13.66;63.67
68248;SHT30;55064;49.636;12.164;2023-04-24T12:20:26;13.62;62.82
68248;SHT30;55064;49.636;12.164;2023-04-24T12:22:59;13.95;63.60
68248;SHT30;55064;49.636;12.164;2023-04-24T12:25:27;13.90;62.77
68248;SHT30;55064;49.636;12.164;2023-04-24T12:28:09;13.65;63.16
68248;SHT30;55064;49.636;12.164;2023-04-24T12:30:46;13.36;62.29
68248;SHT30;55064;49.636;12.164;2023-04-24T12:33:17;13.10;62.22
68248;SHT30;55064;49.636;12.164;2023-04-24T12:35:42;12.97;61.46
68248;SHT30;55064;49.636;12.164;2023-04-24T12:38:09;13.16;61.55
68248;SHT30;55064;49.636;12.164;2023-04-24T12:40:35;13.26;60.29
68248;SHT30;55064;49.636;12.164;2023-04-24T12:43:12;13.34;59.82
68248;SHT30;55064;49.636;12.164;2023-04-24T12:45:37;13.57;59.96
68248;SHT30;55064;49.636;12.164;2023-04-24T12:48:03;13.69;59.99
68248;SHT30;55064;49.636;12.164;2023-04-24T12:50:29;13.45;57.80
68248;SHT30;55064;49.636;12.164;2023-04-24T12:52:54;13.66;58.11
68248;SHT30;55064;49.636;12.164;2023-04-24T12:55:22;13.89;58.30
68248;SHT30;55064;49.636;12.164;2023-04-24T12:57:54;14.02;55.83
68248;SHT30;55064;49.636;12.164;2023-04-24T13:00:20;14.10;56.88
68248;SHT30;55064;49.636;12.164;2023-04-24T13:02:46;13.92;56.12
68248;SHT30;55064;49.636;12.164;2023-04-24T13:05:14;13.61;56.88
68248;SHT30;55064;49.636;12.164;2023-04-24T13:07:41;13.59;58.07
68248;SHT30;55064;49.636;12.164;2023-04-24T13:10:07;13.50;58.49
68248;SHT30;55064;49.636;12.164;2023-04-24T13:12:35;13.27;59.44
68248;SHT30;55064;49.636;12.164;2023-04-24T13:15:04;13.03;59.47
68248;SHT30;55064;49.636;12.164;2023-04-24T13:17:32;12.81;60.95
68248;SHT30;55064;49.636;12.164;2023-04-24T13:19:58;12.61;61.53
68248;SHT30;55064;49.636;12.164;2023-04-24T13:22:23;12.55;61.90
68248;SHT30;55064;49.636;12.164;2023-04-24T13:24:50;12.46;61.67
68248;SHT30;55064;49.636;12.164;2023-04-24T13:27:16;12.35;61.75
68248;SHT30;55064;49.636;12.164;2023-04-24T13:29:44;12.24;62.31
68248;SHT30;55064;49.636;12.164;2023-04-24T13:32:12;12.26;63.08
68248;SHT30;55064;49.636;12.164;2023-04-24T13:34:38;12.26;61.86
68248;SHT30;55064;49.636;12.164;2023-04-24T13:37:04;12.18;62.18
68248;SHT30;55064;49.636;12.164;2023-04-24T13:39:33;12.30;61.73
68248;SHT30;55064;49.636;12.164;2023-04-24T13:42:00;12.48;61.83
68248;SHT30;55064;49.636;12.164;2023-04-24T13:44:26;12.56;61.38
68248;SHT30;55064;49.636;12.164;2023-04-24T13:46:54;12.62;60.92
68248;SHT30;55064;49.636;12.164;2023-04-24T13:49:22;12.79;60.77
68248;SHT30;55064;49.636;12.164;2023-04-24T13:51:50;12.86;60.43
68248;SHT30;55064;49.636;12.164;2023-04-24T13:54:15;13.06;59.95
68248;SHT30;55064;49.636;12.164;2023-04-24T13:56:41;13.17;59.97
68248;SHT30;55064;49.636;12.164;2023-04-24T13:59:13;13.21;60.17
68248;SHT30;55064;49.636;12.164;2023-04-24T14:01:38;13.21;60.26
68248;SHT30;55064;49.636;12.164;2023-04-24T14:04:06;13.09;60.33
68248;SHT30;55064;49.636;12.164;2023-04-24T14:06:31;12.97;60.99
68248;SHT30;55064;49.636;12.164;2023-04-24T14:08:59;12.86;62.03
68248;SHT30;55064;49.636;12.164;2023-04-24T14:11:26;12.69;62.29
68248;SHT30;55064;49.636;12.164;2023-04-24T14:13:51;12.61;63.52
68248;SHT30;55064;49.636;12.164;2023-04-24T14:16:17;12.45;61.95
68248;SHT30;55064;49.636;12.164;2023-04-24T14:18:42;12.40;62.11
68248;SHT30;55064;49.636;12.164;2023-04-24T14:21:07;12.40;62.87
68248;SHT30;55064;49.636;12.164;2023-04-24T14:23:33;12.42;63.12
68248;SHT30;55064;49.636;12.164;2023-04-24T14:25:58;12.42;62.91
68248;SHT30;55064;49.636;12.164;2023-04-24T14:28:30;12.44;62.25
68248;SHT30;55064;49.636;12.164;2023-04-24T14:30:56;12.59;63.24
68248;SHT30;55064;49.636;12.164;2023-04-24T14:33:24;12.59;62.22
68248;SHT30;55064;49.636;12.164;2023-04-24T14:35:49;12.42;62.37
68248;SHT30;55064;49.636;12.164;2023-04-24T14:38:15;12.31;62.18
68248;SHT30;55064;49.636;12.164;2023-04-24T14:40:40;12.40;63.03
68248;SHT30;55064;49.636;12.164;2023-04-24T14:43:08;12.52;61.79
68248;SHT30;55064;49.636;12.164;2023-04-24T14:45:37;12.54;61.76
68248;SHT30;55064;49.636;12.164;2023-04-24T14:48:04;12.65;62.50
68248;SHT30;55064;49.636;12.164;2023-04-24T14:50:33;12.64;62.30
68248;SHT30;55064;49.636;12.164;2023-04-24T14:52:58;12.62;61.73
68248;SHT30;55064;49.636;12.164;2023-04-24T14:55:25;12.51;61.51
68248;SHT30;55064;49.636;12.164;2023-04-24T14:57:53;12.49;62.21
68248;SHT30;55064;49.636;12.164;2023-04-24T15:00:19;12.48;62.36
68248;SHT30;55064;49.636;12.164;2023-04-24T15:02:45;12.41;62.22
68248;SHT30;55064;49.636;12.164;2023-04-24T15:05:10;12.55;62.22
68248;SHT30;55064;49.636;12.164;2023-04-24T15:07:37;12.73;62.30
68248;SHT30;55064;49.636;12.164;2023-04-24T15:10:07;12.55;62.30
68248;SHT30;55064;49.636;12.164;2023-04-24T15:12:33;12.46;63.49
68248;SHT30;55064;49.636;12.164;2023-04-24T15:15:02;12.54;64.05
68248;SHT30;55064;49.636;12.164;2023-04-24T15:17:29;12.49;63.60
68248;SHT30;55064;49.636;12.164;2023-04-24T15:19:55;12.42;63.75
68248;SHT30;55064;49.636;12.164;2023-04-24T15:22:21;12.45;64.84
68248;SHT30;55064;49.636;12.164;2023-04-24T15:24:49;12.51;64.74
68248;SHT30;55064;49.636;12.164;2023-04-24T15:27:17;12.35;64.07
68248;SHT30;55064;49.636;12.164;2023-04-24T15:29:43;12.40;64.32
68248;SHT30;55064;49.636;12.164;2023-04-24T15:32:08;12.41;63.63
68248;SHT30;55064;49.636;12.164;2023-04-24T15:34:36;12.51;63.15
68248;SHT30;55064;49.636;12.164;2023-04-24T15:37:01;12.42;63.09
68248;SHT30;55064;49.636;12.164;2023-04-24T15:39:27;12.52;63.30
68248;SHT30;55064;49.636;12.164;2023-04-24T15:41:55;12.48;62.99
68248;SHT30;55064;49.636;12.164;2023-04-24T15:44:24;12.64;63.10
68248;SHT30;55064;49.636;12.164;2023-04-24T15:46:51;12.73;61.94
68248;SHT30;55064;49.636;12.164;2023-04-24T15:49:23;12.82;60.94
68248;SHT30;55064;49.636;12.164;2023-04-24T15:51:51;12.82;57.90
68248;SHT30;55064;49.636;12.164;2023-04-24T15:54:17;12.88;58.80
68248;SHT30;55064;49.636;12.164;2023-04-24T15:56:42;12.76;58.90
68248;SHT30;55064;49.636;12.164;2023-04-24T15:59:10;12.62;58.98
68248;SHT30;55064;49.636;12.164;2023-04-24T16:01:36;12.59;58.77
68248;SHT30;55064;49.636;12.164;2023-04-24T16:04:01;12.52;59.38
68248;SHT30;55064;49.636;12.164;2023-04-24T16:06:27;12.46;60.59
68248;SHT30;55064;49.636;12.164;2023-04-24T16:08:53;12.44;60.98
68248;SHT30;55064;49.636;12.164;2023-04-24T16:11:18;12.27;61.77
68248;SHT30;55064;49.636;12.164;2023-04-24T16:13:43;12.17;62.52
68248;SHT30;55064;49.636;12.164;2023-04-24T16:16:09;12.06;63.56
68248;SHT30;55064;49.636;12.164;2023-04-24T16:18:35;12.07;63.87
68248;SHT30;55064;49.636;12.164;2023-04-24T16:21:01;12.04;64.80
68248;SHT30;55064;49.636;12.164;2023-04-24T16:23:27;11.91;65.01
68248;SHT30;55064;49.636;12.164;2023-04-24T16:25:52;11.75;65.98
68248;SHT30;55064;49.636;12.164;2023-04-24T16:28:18;11.38;67.04
68248;SHT30;55064;49.636;12.164;2023-04-24T16:30:46;11.11;68.97
68248;SHT30;55064;49.636;12.164;2023-04-24T16:33:12;10.96;69.81
68248;SHT30;55064;49.636;12.164;2023-04-24T16:35:37;10.93;70.03
68248;SHT30;55064;49.636;12.164;2023-04-24T16:38:04;10.90;70.02
68248;SHT30;55064;49.636;12.164;2023-04-24T16:40:30;10.96;70.01
68248;SHT30;55064;49.636;12.164;2023-04-24T16:42:57;10.97;69.88
68248;SHT30;55064;49.636;12.164;2023-04-24T16:45:22;10.96;69.33